Terminal Aerodrome Forecast
Issued by NWS Sterling, VA

Current Version | Previous Version | Graphics & Text | Print | Product List | Glossary On
Versions: 1 2 3 4 5 6 7 8 9 10 11 12 13 14 15 16 17 18 19 20 21 22 23 24 25 26 27
000
FTUS41 KLWX 252320
TAFDCA
TAF
KDCA 252320Z 2600/2624 17008KT P6SM FEW050 SCT200
     FM261400 19010KT P6SM FEW050 SCT130
     FM261700 19010KT P6SM BKN050 BKN130=

USA.gov is the U.S. government's official web portal to all federal, state and local government web resources and services.